Time;durP1;ratioP1;P1;durP2;ratioP2;P2;SDS_P1;SDS_P2;PMS_P1;PMS_P2;Temp;Humidity;BMP_temperature;BMP_pressure;BME280_temperature;BME280_humidity;BME280_pressure;Samples;Min_cycle;Max_cycle;Signal;HPM_P1;HPM_P2
2023/08/10 00:02:00;;;;;;;4.88;2.20;;;;;;;16.28;100.00;92767.97;4791013;29;20110;-82
2023/08/10 00:04:26;;;;;;;5.35;2.55;;;;;;;16.29;100.00;92772.13;4791434;29;20074;-83
2023/08/10 00:06:51;;;;;;;4.82;2.50;;;;;;;16.29;100.00;92774.00;4802537;29;20047;-84
2023/08/10 00:09:17;;;;;;;4.80;2.35;;;;;;;16.28;100.00;92778.53;4774533;30;20052;-84
2023/08/10 00:11:42;;;;;;;6.75;2.47;;;;;;;16.28;100.00;92772.44;4774318;30;20050;-83
2023/08/10 00:14:09;;;;;;;5.40;2.50;;;;;;;16.26;100.00;92778.06;4774348;30;20477;-83
2023/08/10 00:16:35;;;;;;;7.55;2.28;;;;;;;16.22;100.00;92782.41;4783609;29;20081;-84
2023/08/10 00:19:01;;;;;;;6.60;2.70;;;;;;;16.18;100.00;92776.19;4791717;29;20035;-83
2023/08/10 00:21:27;;;;;;;7.10;2.35;;;;;;;16.15;100.00;92776.84;4791994;29;20046;-83
2023/08/10 00:23:56;;;;;;;5.25;2.17;;;;;;;16.17;100.00;92772.03;4791574;29;20071;-84
2023/08/10 00:26:23;;;;;;;6.55;2.47;;;;;;;16.14;100.00;92770.75;4791639;29;20047;-84
2023/08/10 00:29:06;;;;;;;5.43;2.30;;;;;;;16.14;100.00;92780.53;4792021;29;20031;-83
2023/08/10 00:31:32;;;;;;;7.03;2.28;;;;;;;16.13;100.00;92784.28;4790168;30;20087;-83
2023/08/10 00:34:01;;;;;;;9.32;2.75;;;;;;;16.14;100.00;92785.81;4791734;30;20051;-83
2023/08/10 00:36:28;;;;;;;6.53;2.72;;;;;;;16.12;100.00;92785.38;4791452;29;20510;-83
2023/08/10 00:38:54;;;;;;;5.60;2.42;;;;;;;16.12;100.00;92782.72;4806149;29;20047;-83
2023/08/10 00:41:20;;;;;;;6.28;2.40;;;;;;;16.07;100.00;92781.03;4789892;30;20046;-83
2023/08/10 00:43:48;;;;;;;5.82;2.28;;;;;;;16.05;100.00;92783.19;4791403;29;20128;-83
2023/08/10 00:46:14;;;;;;;7.82;2.60;;;;;;;16.05;100.00;92782.44;4790647;29;20114;-83
2023/08/10 00:48:40;;;;;;;5.53;2.47;;;;;;;16.02;100.00;92781.97;4791257;30;20051;-84
2023/08/10 00:51:06;;;;;;;5.50;2.30;;;;;;;15.97;100.00;92776.84;4791525;29;20410;-83
2023/08/10 00:53:32;;;;;;;5.03;2.60;;;;;;;15.99;100.00;92787.09;4790322;30;20070;-83
2023/08/10 00:55:59;;;;;;;8.00;2.40;;;;;;;15.98;100.00;92788.19;4791293;29;20039;-83
2023/08/10 00:58:26;;;;;;;7.22;2.30;;;;;;;15.99;100.00;92789.75;4788823;30;20046;-83
2023/08/10 01:00:52;;;;;;;5.20;2.20;;;;;;;15.97;100.00;92795.31;4789996;30;20035;-83
2023/08/10 01:03:18;;;;;;;7.90;2.47;;;;;;;15.93;100.00;92796.25;4775066;30;20051;-82
2023/08/10 01:06:14;;;;;;;6.97;2.40;;;;;;;15.93;100.00;92799.66;4790878;29;20059;-83
2023/08/10 01:09:06;;;;;;;7.07;2.47;;;;;;;15.90;100.00;92799.53;4751578;30;20134;-83
2023/08/10 01:11:42;;;;;;;6.30;2.45;;;;;;;15.88;100.00;92802.47;4790390;29;20100;-83
2023/08/10 01:14:30;;;;;;;6.00;2.50;;;;;;;15.81;100.00;92794.25;4793281;30;20031;-83
2023/08/10 01:16:59;;;;;;;5.82;2.40;;;;;;;15.81;100.00;92789.75;4794585;29;20039;-82
2023/08/10 01:19:38;;;;;;;5.90;2.45;;;;;;;15.79;100.00;92791.91;4794088;29;20050;-83
2023/08/10 01:22:53;;;;;;;4.50;2.40;;;;;;;15.76;100.00;92791.75;4808003;29;20062;-83
2023/08/10 01:25:20;;;;;;;7.40;2.40;;;;;;;15.72;100.00;92796.13;4759901;29;20056;-83
2023/08/10 01:27:45;;;;;;;6.97;2.40;;;;;;;15.72;100.00;92796.13;4794044;29;20028;-83
2023/08/10 01:30:14;;;;;;;6.57;2.30;;;;;;;15.70;100.00;92800.88;4808466;29;20510;-84
2023/08/10 01:32:39;;;;;;;6.65;2.42;;;;;;;15.71;100.00;92805.09;4807471;29;20492;-84
2023/08/10 01:35:07;;;;;;;10.05;2.30;;;;;;;15.70;100.00;92806.16;4794392;29;20050;-84
2023/08/10 01:37:33;;;;;;;5.10;2.20;;;;;;;15.66;100.00;92803.38;4794096;29;20027;-83
2023/08/10 01:40:00;;;;;;;7.45;2.15;;;;;;;15.61;100.00;92801.66;4793104;29;20047;-82
2023/08/10 01:42:26;;;;;;;5.55;2.70;;;;;;;15.60;100.00;92807.22;4805153;29;20047;-84
2023/08/10 01:44:52;;;;;;;5.35;2.40;;;;;;;15.59;100.00;92811.72;4774925;29;20050;-83
2023/08/10 01:47:27;;;;;;;7.40;2.75;;;;;;;15.59;100.00;92806.47;4804615;29;20127;-83
2023/08/10 01:49:58;;;;;;;7.30;2.20;;;;;;;15.57;100.00;92805.22;4775647;30;20128;-82
2023/08/10 01:52:36;;;;;;;4.85;2.28;;;;;;;15.55;100.00;92805.50;4789296;30;20040;-83
2023/08/10 01:55:02;;;;;;;5.25;2.50;;;;;;;15.52;100.00;92811.41;4792522;29;20664;-83
2023/08/10 01:57:29;;;;;;;5.38;2.55;;;;;;;15.46;100.00;92804.72;4792637;30;20055;-83
2023/08/10 01:59:56;;;;;;;4.40;2.30;;;;;;;15.45;100.00;92808.47;4806760;29;20071;-83
2023/08/10 02:02:21;;;;;;;6.07;2.38;;;;;;;15.48;100.00;92821.03;4792681;30;20121;-83
2023/08/10 02:04:47;;;;;;;5.15;2.17;;;;;;;15.48;100.00;92810.47;4793108;29;20050;-83
2023/08/10 02:07:14;;;;;;;5.20;2.70;;;;;;;15.44;100.00;92806.91;4807175;29;20036;-83
2023/08/10 02:09:40;;;;;;;7.78;2.40;;;;;;;15.46;100.00;92810.00;4792384;30;20039;-83
2023/08/10 02:12:06;;;;;;;8.18;2.20;;;;;;;15.42;100.00;92809.06;4793680;29;20074;-83
2023/08/10 02:14:31;;;;;;;5.88;2.33;;;;;;;15.41;100.00;92812.78;4792481;30;20157;-83
2023/08/10 02:16:57;;;;;;;5.45;2.40;;;;;;;15.36;100.00;92805.81;4791818;29;20074;-83
2023/08/10 02:19:23;;;;;;;5.05;2.58;;;;;;;15.33;100.00;92806.44;4793651;30;20095;-83
2023/08/10 02:21:50;;;;;;;5.63;2.28;;;;;;;15.32;100.00;92806.72;4792494;30;20097;-84
2023/08/10 02:24:15;;;;;;;4.82;2.40;;;;;;;15.26;100.00;92806.09;4791385;29;20039;-83
2023/08/10 02:26:43;;;;;;;5.00;2.20;;;;;;;15.23;100.00;92804.06;4793933;29;20089;-83
2023/08/10 02:29:08;;;;;;;4.25;2.15;;;;;;;15.17;100.00;92803.41;4794273;29;20050;-83
2023/08/10 02:31:34;;;;;;;4.53;2.40;;;;;;;15.15;100.00;92796.91;4792090;30;20435;-83
2023/08/10 02:34:05;;;;;;;7.00;2.50;;;;;;;15.12;100.00;92800.94;4792592;29;20043;-82
2023/08/10 02:36:31;;;;;;;5.80;2.60;;;;;;;15.14;100.00;92798.00;4791827;30;20039;-83
2023/08/10 02:38:57;;;;;;;4.10;2.28;;;;;;;15.09;100.00;92788.38;4806631;29;20047;-83
2023/08/10 02:41:23;;;;;;;4.20;2.28;;;;;;;15.14;100.00;92793.50;4791690;30;20039;-83
2023/08/10 02:43:50;;;;;;;6.20;2.58;;;;;;;15.15;100.00;92795.06;4806721;29;20030;-84
2023/08/10 02:46:19;;;;;;;4.38;2.38;;;;;;;15.14;100.00;92790.84;4793054;29;20047;-83
2023/08/10 02:48:44;;;;;;;4.93;2.50;;;;;;;15.11;100.00;92783.56;4807296;29;20050;-83
2023/08/10 02:51:10;;;;;;;10.10;2.42;;;;;;;15.16;100.00;92790.56;4777276;30;20047;-84
2023/08/10 02:53:36;;;;;;;4.60;2.28;;;;;;;15.15;100.00;92787.16;4806558;29;20046;-83
2023/08/10 02:56:01;;;;;;;6.20;2.60;;;;;;;15.15;100.00;92784.53;4793131;29;20035;-83
2023/08/10 02:58:28;;;;;;;3.58;1.92;;;;;;;15.19;100.00;92782.03;4792396;30;20058;-83
2023/08/10 03:00:54;;;;;;;5.60;2.53;;;;;;;15.17;100.00;92778.91;4791772;30;20071;-83
2023/08/10 03:03:20;;;;;;;6.57;2.13;;;;;;;15.15;100.00;92778.44;4791358;30;20050;-83
2023/08/10 03:05:46;;;;;;;4.10;2.22;;;;;;;15.14;100.00;92782.94;4793075;29;20051;-83
2023/08/10 03:08:11;;;;;;;5.57;2.33;;;;;;;15.14;100.00;92785.59;4792394;29;20054;-84
2023/08/10 03:10:37;;;;;;;5.78;2.30;;;;;;;15.10;100.00;92782.00;4793192;29;20047;-84
2023/08/10 03:13:04;;;;;;;4.72;2.17;;;;;;;15.07;100.00;92776.59;4790927;29;20079;-83
2023/08/10 03:15:31;;;;;;;5.43;2.13;;;;;;;15.06;100.00;92783.69;4792508;30;20069;-83
2023/08/10 03:17:56;;;;;;;7.28;2.40;;;;;;;15.04;100.00;92770.06;4791680;29;20518;-83
2023/08/10 03:20:22;;;;;;;7.95;2.50;;;;;;;15.04;100.00;92787.72;4790867;30;20130;-83
2023/08/10 03:22:48;;;;;;;8.25;2.58;;;;;;;15.01;100.00;92783.06;4776163;30;20039;-83
2023/08/10 03:25:14;;;;;;;6.75;2.30;;;;;;;14.97;100.00;92785.53;4771296;30;20444;-83
2023/08/10 03:27:41;;;;;;;4.78;2.40;;;;;;;14.99;100.00;92791.28;4790606;30;20073;-82
2023/08/10 03:30:11;;;;;;;5.72;2.42;;;;;;;14.95;100.00;92780.59;4804771;29;20031;-83
2023/08/10 03:32:37;;;;;;;5.85;2.50;;;;;;;14.93;100.00;92788.00;4805542;29;20051;-83
2023/08/10 03:35:04;;;;;;;4.32;2.20;;;;;;;14.92;100.00;92785.69;4790395;29;20550;-83
2023/08/10 03:37:30;;;;;;;4.45;2.28;;;;;;;14.90;100.00;92785.19;4805714;29;20100;-83
2023/08/10 03:39:56;;;;;;;5.63;2.83;;;;;;;14.93;100.00;92789.88;4790563;30;20043;-82
2023/08/10 03:42:23;;;;;;;4.75;2.53;;;;;;;14.91;100.00;92789.41;4775821;30;20044;-83
2023/08/10 03:44:49;;;;;;;5.03;2.30;;;;;;;14.87;100.00;92789.22;4790825;30;20039;-83
2023/08/10 03:47:15;;;;;;;5.75;2.40;;;;;;;14.86;100.00;92792.97;4790393;29;20050;-82
2023/08/10 03:49:41;;;;;;;6.47;2.40;;;;;;;14.88;100.00;92797.91;4805503;29;20122;-83
2023/08/10 03:52:06;;;;;;;5.20;2.40;;;;;;;14.85;100.00;92794.03;4805542;29;20035;-83
2023/08/10 03:54:32;;;;;;;4.72;2.42;;;;;;;14.84;100.00;92792.47;4806623;29;20054;-83
2023/08/10 03:56:59;;;;;;;7.15;2.08;;;;;;;14.83;100.00;92790.13;4805190;29;20126;-83
2023/08/10 03:59:24;;;;;;;3.80;2.20;;;;;;;14.81;100.00;92789.66;4804645;29;20046;-82
2023/08/10 04:01:51;;;;;;;5.60;2.67;;;;;;;14.84;100.00;92802.22;4790154;30;20043;-83
2023/08/10 04:04:19;;;;;;;4.75;2.30;;;;;;;14.80;100.00;92807.34;4776359;30;20078;-83
2023/08/10 04:06:45;;;;;;;7.60;2.25;;;;;;;14.75;100.00;92802.97;4791351;29;20146;-83
2023/08/10 04:09:17;;;;;;;7.30;2.35;;;;;;;14.73;100.00;92802.50;4792308;30;20039;-82
2023/08/10 04:11:42;;;;;;;4.75;2.20;;;;;;;14.73;100.00;92805.13;4791896;29;20077;-83
2023/08/10 04:14:09;;;;;;;4.82;2.25;;;;;;;14.73;100.00;92804.38;4792178;29;20072;-84
2023/08/10 04:16:36;;;;;;;5.53;2.35;;;;;;;14.71;100.00;92807.31;4791982;29;20047;-83
2023/08/10 04:19:01;;;;;;;6.28;2.28;;;;;;;14.72;100.00;92811.47;4791228;29;20023;-83
2023/08/10 04:21:27;;;;;;;4.57;2.38;;;;;;;14.71;100.00;92811.81;4805472;29;20498;-84
2023/08/10 04:23:53;;;;;;;6.30;2.22;;;;;;;14.71;100.00;92812.56;4791038;29;20058;-83
2023/08/10 04:26:19;;;;;;;5.18;2.58;;;;;;;14.72;100.00;92819.38;4790765;29;20043;-83
2023/08/10 04:28:45;;;;;;;5.03;2.33;;;;;;;14.72;100.00;92819.38;4790732;29;20491;-82
2023/08/10 04:31:10;;;;;;;4.55;2.53;;;;;;;14.71;100.00;92814.44;4790955;29;20107;-84
2023/08/10 04:33:37;;;;;;;6.40;2.53;;;;;;;14.68;100.00;92813.19;4790645;30;20043;-83
2023/08/10 04:36:02;;;;;;;4.82;2.10;;;;;;;14.73;100.00;92826.22;4774478;30;20040;-83
2023/08/10 04:38:29;;;;;;;5.72;2.63;;;;;;;14.70;100.00;92821.56;4791389;29;20131;-83
2023/08/10 04:40:55;;;;;;;6.45;2.65;;;;;;;14.72;100.00;92824.66;4792161;29;20059;-83
2023/08/10 04:43:21;;;;;;;5.10;2.22;;;;;;;14.73;100.00;92820.94;4791484;29;20032;-83
2023/08/10 04:45:48;;;;;;;5.93;2.53;;;;;;;14.71;100.00;92817.84;4792155;29;20555;-83
2023/08/10 04:48:13;;;;;;;5.20;2.45;;;;;;;14.78;100.00;92827.94;4794602;29;20054;-83
2023/08/10 04:50:39;;;;;;;5.85;2.45;;;;;;;14.81;100.00;92826.56;4794590;30;20039;-83
2023/08/10 04:53:04;;;;;;;6.35;2.50;;;;;;;14.83;100.00;92824.41;4795139;29;20051;-83
2023/08/10 04:55:30;;;;;;;5.28;2.45;;;;;;;14.88;100.00;92827.69;4793643;30;20051;-82
2023/08/10 04:57:57;;;;;;;5.22;2.50;;;;;;;14.91;100.00;92821.03;4794787;29;20042;-83
2023/08/10 05:00:23;;;;;;;6.78;2.58;;;;;;;14.89;100.00;92823.19;4794062;30;20107;-81
2023/08/10 05:02:50;;;;;;;5.10;2.50;;;;;;;14.95;100.00;92824.59;4792761;30;20039;-83
2023/08/10 05:05:17;;;;;;;4.95;2.10;;;;;;;14.96;100.00;92823.53;4794644;29;20514;-83
2023/08/10 05:07:42;;;;;;;4.25;2.20;;;;;;;14.98;100.00;92829.28;4794397;29;20050;-82
2023/08/10 05:10:10;;;;;;;7.10;2.80;;;;;;;15.04;100.00;92833.34;4794396;29;20039;-82
2023/08/10 05:12:37;;;;;;;7.65;2.70;;;;;;;15.08;100.00;92828.97;4794542;29;20148;-83
2023/08/10 05:15:04;;;;;;;5.57;2.72;;;;;;;15.15;100.00;92831.19;4794722;29;20095;-83
2023/08/10 05:17:29;;;;;;;4.80;2.60;;;;;;;15.22;100.00;92841.28;4794991;29;20415;-82
2023/08/10 05:19:55;;;;;;;5.60;2.65;;;;;;;15.30;100.00;92843.19;4794017;30;20047;-83
2023/08/10 05:22:21;;;;;;;4.20;2.20;;;;;;;15.39;100.00;92847.38;4794641;29;20411;-83
2023/08/10 05:24:46;;;;;;;4.90;2.47;;;;;;;15.42;100.00;92846.00;4795188;29;20063;-83
2023/08/10 05:27:23;;;;;;;5.70;2.72;;;;;;;15.58;100.00;92849.78;4794418;29;20071;-83
2023/08/10 05:29:48;;;;;;;5.22;2.40;;;;;;;15.65;100.00;92859.06;4793380;29;20138;-83
2023/08/10 05:32:14;;;;;;;4.93;2.40;;;;;;;15.75;100.00;92869.38;4793214;29;20039;-83
2023/08/10 05:34:40;;;;;;;5.95;2.28;;;;;;;15.84;100.00;92870.16;4794684;29;20451;-83
2023/08/10 05:37:05;;;;;;;7.70;2.75;;;;;;;15.97;100.00;92873.75;4793206;29;20054;-83
2023/08/10 05:39:38;;;;;;;10.18;3.03;;;;;;;16.10;100.00;92874.69;4793627;29;20503;-83
2023/08/10 05:42:05;;;;;;;5.43;2.60;;;;;;;16.22;100.00;92877.50;4795348;29;20058;-83
2023/08/10 05:44:40;;;;;;;9.18;2.80;;;;;;;16.37;100.00;92881.50;4809214;29;20380;-83
2023/08/10 05:47:11;;;;;;;8.55;2.72;;;;;;;16.52;100.00;92888.19;4795402;29;20055;-84
2023/08/10 05:49:39;;;;;;;5.30;2.72;;;;;;;16.67;100.00;92886.94;4795260;29;20483;-84
2023/08/10 05:52:29;;;;;;;9.90;3.20;;;;;;;16.90;100.00;92892.81;4795569;29;20095;-83
2023/08/10 05:54:58;;;;;;;6.25;2.80;;;;;;;17.01;100.00;92897.47;4794902;29;20100;-84
2023/08/10 05:57:23;;;;;;;14.38;3.10;;;;;;;17.11;100.00;92904.25;4794172;29;20047;-84
2023/08/10 05:59:49;;;;;;;11.77;2.90;;;;;;;17.21;100.00;92895.22;4795326;29;20032;-84
2023/08/10 06:02:22;;;;;;;8.00;3.00;;;;;;;17.32;100.00;92893.00;4794411;29;20043;-84
2023/08/10 06:05:07;;;;;;;6.40;2.90;;;;;;;17.44;100.00;92904.47;4795186;29;20104;-84
2023/08/10 06:07:47;;;;;;;5.35;2.67;;;;;;;17.57;100.00;92908.00;4795112;29;20414;-84
2023/08/10 06:10:44;;;;;;;4.47;2.47;;;;;;;17.78;100.00;92904.63;4793648;30;20122;-83
2023/08/10 06:13:13;;;;;;;5.10;2.38;;;;;;;18.52;98.31;92905.84;4795222;29;20051;-84
2023/08/10 06:16:05;;;;;;;4.18;2.28;;;;;;;19.78;89.29;92907.38;4794477;29;20071;-84
2023/08/10 06:19:09;;;;;;;7.55;2.28;;;;;;;21.24;81.86;92916.03;4795135;29;20088;-84
2023/08/10 06:21:40;;;;;;;6.47;2.30;;;;;;;21.68;80.30;92915.97;4795148;29;20043;-84
2023/08/10 06:24:08;;;;;;;5.72;2.40;;;;;;;22.10;77.31;92912.75;4794744;29;20047;-84
2023/08/10 06:26:34;;;;;;;5.78;2.60;;;;;;;22.62;75.79;92905.47;4794756;29;20051;-83
2023/08/10 06:29:00;;;;;;;6.90;2.70;;;;;;;23.10;73.22;92913.25;4793776;30;20065;-85
2023/08/10 06:31:26;;;;;;;10.32;2.63;;;;;;;23.17;70.90;92916.06;4793475;30;20046;-85
2023/08/10 06:33:51;;;;;;;6.70;2.45;;;;;;;23.58;70.77;92916.41;4793726;29;20058;-84
2023/08/10 06:36:17;;;;;;;9.13;2.75;;;;;;;23.85;67.80;92917.22;4794178;29;20130;-82
2023/08/10 06:38:44;;;;;;;9.10;2.90;;;;;;;24.10;65.74;92921.03;4794155;30;20091;-82
2023/08/10 06:41:12;;;;;;;6.82;2.75;;;;;;;24.84;63.02;92929.69;4778207;30;20046;-83
2023/08/10 06:43:38;;;;;;;10.07;2.97;;;;;;;25.09;63.02;92925.38;4793098;30;20077;-82
2023/08/10 06:46:03;;;;;;;7.97;3.15;;;;;;;25.16;62.27;92929.25;4794182;29;20048;-83
2023/08/10 06:48:29;;;;;;;8.02;2.92;;;;;;;25.18;61.11;92929.66;4808634;29;20058;-83
2023/08/10 06:50:54;;;;;;;7.57;2.75;;;;;;;25.43;61.67;92933.38;4807589;29;20545;-83
2023/08/10 06:53:22;;;;;;;7.93;2.80;;;;;;;25.22;60.04;92933.16;4792835;30;20510;-83
2023/08/10 06:55:53;;;;;;;6.47;2.33;;;;;;;24.61;59.24;92927.88;4793880;30;20043;-83
2023/08/10 06:58:19;;;;;;;10.13;3.08;;;;;;;23.99;64.54;92930.81;4792802;30;20410;-83
2023/08/10 07:00:46;;;;;;;8.52;3.50;;;;;;;23.40;69.29;92935.56;4807181;29;20039;-83
2023/08/10 07:03:12;;;;;;;7.32;2.70;;;;;;;22.19;73.55;92932.00;4792814;29;20039;-83
2023/08/10 07:05:38;;;;;;;6.80;2.72;;;;;;;22.10;76.31;92928.75;4793512;29;20088;-83
2023/08/10 07:08:05;;;;;;;7.70;3.10;;;;;;;21.61;79.34;92931.78;4793904;29;20081;-82
2023/08/10 07:10:31;;;;;;;9.07;2.80;;;;;;;20.88;82.77;92935.63;4793083;29;20038;-83
2023/08/10 07:12:57;;;;;;;7.50;3.08;;;;;;;20.90;83.21;92933.41;4792164;30;20059;-84
2023/08/10 07:16:33;;;;;;;8.73;3.00;;;;;;;20.91;83.31;92933.03;4794896;30;20050;-84
2023/08/10 07:19:01;;;;;;;6.43;2.65;;;;;;;20.98;81.43;92930.59;4794173;29;20039;-82
2023/08/10 07:21:33;;;;;;;5.82;2.55;;;;;;;21.29;79.80;92934.41;4793499;29;20039;-83
2023/08/10 07:24:05;;;;;;;7.72;2.58;;;;;;;21.19;81.00;92926.94;4793918;29;20454;-83
2023/08/10 07:26:32;;;;;;;6.68;2.63;;;;;;;21.40;81.23;92940.00;4793258;29;20099;-83
2023/08/10 07:29:00;;;;;;;5.55;2.85;;;;;;;21.30;79.00;92935.97;4793015;29;20116;-83
2023/08/10 07:31:33;;;;;;;6.25;2.60;;;;;;;21.56;77.72;92926.72;4793002;29;20054;-82
2023/08/10 07:34:14;;;;;;;4.93;2.67;;;;;;;21.33;78.48;92929.19;4793535;29;20043;-83
2023/08/10 07:36:48;;;;;;;6.45;2.72;;;;;;;21.24;79.51;92929.34;4793846;29;20058;-83
2023/08/10 07:39:21;;;;;;;5.28;2.75;;;;;;;21.30;77.10;92924.53;4793128;29;20062;-83
2023/08/10 07:41:58;;;;;;;7.60;2.38;;;;;;;21.52;76.23;92925.88;4776033;30;20047;-83
2023/08/10 07:44:40;;;;;;;8.52;3.15;;;;;;;21.06;79.86;92933.44;4775748;30;20052;-83
2023/08/10 07:47:30;;;;;;;7.25;2.65;;;;;;;20.90;79.33;92925.41;4775339;30;20035;-83
2023/08/10 07:49:57;;;;;;;7.00;2.30;;;;;;;20.75;80.32;92922.34;4776590;30;20035;-83
2023/08/10 07:52:27;;;;;;;9.13;2.53;;;;;;;20.77;81.22;92928.13;4792452;30;20088;-82
2023/08/10 07:54:58;;;;;;;5.47;2.75;;;;;;;20.83;80.59;92933.97;4793221;30;20142;-82
2023/08/10 07:57:23;;;;;;;6.68;2.60;;;;;;;21.25;80.53;92933.53;4792861;29;20530;-83
2023/08/10 08:00:16;;;;;;;6.75;2.53;;;;;;;21.52;78.28;92926.63;4792968;29;20035;-83
2023/08/10 08:02:53;;;;;;;4.80;2.55;;;;;;;21.59;77.96;92928.69;4793576;29;20103;-83
2023/08/10 08:05:27;;;;;;;5.38;2.38;;;;;;;21.62;76.71;92925.38;4791790;30;20058;-83
2023/08/10 08:07:58;;;;;;;5.03;2.50;;;;;;;21.57;75.89;92917.59;4791949;29;20043;-83
2023/08/10 08:10:36;;;;;;;6.20;2.92;;;;;;;21.52;77.27;92915.22;4793329;29;20521;-83
2023/08/10 08:13:06;;;;;;;4.72;2.47;;;;;;;21.39;75.62;92923.25;4792418;29;20559;-82
2023/08/10 08:15:38;;;;;;;8.85;2.65;;;;;;;21.46;80.04;92913.91;4792963;29;20517;-83
2023/08/10 08:18:55;;;;;;;10.13;2.65;;;;;;;21.28;76.27;92922.22;4792090;30;20047;-83
2023/08/10 08:21:31;;;;;;;5.15;2.35;;;;;;;21.21;77.28;92914.81;4792701;29;20035;-83
2023/08/10 08:23:59;;;;;;;7.97;3.60;;;;;;;21.37;77.16;92920.16;4793506;29;20047;-83
2023/08/10 08:26:47;;;;;;;5.35;2.58;;;;;;;21.17;76.14;92931.81;4776437;30;20043;-83
2023/08/10 08:29:18;;;;;;;4.80;2.40;;;;;;;21.20;79.20;92931.13;4792707;30;20562;-83
2023/08/10 08:31:59;;;;;;;4.70;2.25;;;;;;;21.38;77.50;92932.34;4792614;29;20047;-83
2023/08/10 08:34:28;;;;;;;5.95;2.67;;;;;;;21.42;75.42;92935.91;4794741;29;20444;-82
2023/08/10 08:36:53;;;;;;;6.32;2.60;;;;;;;21.67;77.08;92935.75;4811135;29;20041;-83
2023/08/10 08:39:33;;;;;;;6.13;2.60;;;;;;;21.53;78.51;92932.75;4811277;29;20051;-83
2023/08/10 08:42:08;;;;;;;6.72;2.70;;;;;;;21.61;75.99;92945.09;4792454;29;20103;-83
2023/08/10 08:44:33;;;;;;;4.60;2.00;;;;;;;21.55;77.23;92941.94;4791464;30;20044;-83
2023/08/10 08:47:00;;;;;;;5.60;2.80;;;;;;;21.55;79.04;92935.84;4791616;30;20039;-83
2023/08/10 08:49:35;;;;;;;9.32;2.78;;;;;;;21.69;79.86;92928.19;4791982;30;20050;-83
2023/08/10 08:52:02;;;;;;;7.75;2.92;;;;;;;21.53;79.85;92933.53;4792818;29;20043;-84
2023/08/10 08:54:28;;;;;;;4.95;2.60;;;;;;;21.59;80.24;92932.16;4793098;29;20074;-83
2023/08/10 08:56:59;;;;;;;7.50;2.42;;;;;;;21.55;78.46;92947.28;4792577;29;20039;-83
2023/08/10 08:59:25;;;;;;;5.22;2.60;;;;;;;21.75;79.07;92936.69;4792505;30;20051;-83
2023/08/10 09:01:55;;;;;;;7.25;2.78;;;;;;;21.81;80.81;92954.72;4792196;29;20502;-83
2023/08/10 09:04:25;;;;;;;6.20;2.53;;;;;;;21.89;79.79;92939.69;4791846;29;20053;-83
2023/08/10 09:07:11;;;;;;;7.32;2.83;;;;;;;22.12;78.64;92933.72;4792116;30;20047;-83
2023/08/10 09:09:41;;;;;;;6.60;2.90;;;;;;;22.28;78.09;92933.72;4792817;29;20126;-84
2023/08/10 09:12:31;;;;;;;7.63;2.72;;;;;;;22.64;76.33;92936.00;4792368;29;20136;-84
2023/08/10 09:15:39;;;;;;;8.18;2.60;;;;;;;22.85;73.67;92946.34;4792754;29;20046;-83
2023/08/10 09:18:06;;;;;;;5.63;2.88;;;;;;;23.01;72.67;92951.66;4791987;29;20383;-83
2023/08/10 09:20:37;;;;;;;9.90;3.72;;;;;;;23.13;69.54;92945.38;4791645;29;20052;-83
2023/08/10 09:23:04;;;;;;;5.35;2.40;;;;;;;23.21;70.87;92948.94;4790686;30;20174;-81
2023/08/10 09:25:36;;;;;;;8.02;2.60;;;;;;;23.11;69.53;92944.97;4790897;29;20108;-81
2023/08/10 09:28:10;;;;;;;7.43;2.50;;;;;;;22.81;68.37;92950.06;4790234;29;20047;-83
2023/08/10 09:30:41;;;;;;;5.57;2.80;;;;;;;23.07;69.10;92939.53;4790871;29;20044;-83
2023/08/10 09:33:07;;;;;;;4.38;2.25;;;;;;;23.36;68.26;92936.63;4792556;29;20079;-83
2023/08/10 09:35:36;;;;;;;6.97;3.00;;;;;;;23.53;68.50;92930.81;4793131;30;20096;-84
2023/08/10 09:38:04;;;;;;;5.00;2.50;;;;;;;23.88;66.85;92935.22;4793094;29;20047;-84
2023/08/10 09:40:30;;;;;;;8.32;2.63;;;;;;;23.74;70.52;92935.75;4793854;29;20293;-83
2023/08/10 09:42:59;;;;;;;5.38;2.80;;;;;;;23.84;64.34;92932.47;4807722;29;20415;-83
2023/08/10 09:45:36;;;;;;;5.25;2.75;;;;;;;23.97;65.13;92926.94;4793769;29;20076;-84
2023/08/10 09:48:11;;;;;;;5.90;2.67;;;;;;;23.97;67.65;92927.72;4793878;29;20043;-83
2023/08/10 09:50:45;;;;;;;6.05;2.67;;;;;;;24.12;66.23;92931.38;4794389;29;20074;-84
2023/08/10 09:53:16;;;;;;;5.97;2.40;;;;;;;23.68;68.64;92927.22;4794106;30;20402;-82
2023/08/10 09:55:42;;;;;;;7.45;2.63;;;;;;;23.15;69.83;92923.66;4793940;29;20396;-83
2023/08/10 09:58:13;;;;;;;5.75;2.67;;;;;;;22.81;72.38;92918.06;4793697;29;20035;-82
2023/08/10 10:00:41;;;;;;;5.55;2.55;;;;;;;22.73;71.90;92914.47;4805503;29;20103;-83
2023/08/10 10:03:07;;;;;;;4.78;2.38;;;;;;;22.44;72.12;92913.09;4792877;29;20050;-83
2023/08/10 10:05:35;;;;;;;6.10;2.38;;;;;;;22.78;71.22;92908.84;4793999;29;20483;-84
2023/08/10 10:08:04;;;;;;;7.35;2.40;;;;;;;22.76;68.87;92903.06;4793952;29;20502;-83
2023/08/10 10:10:43;;;;;;;5.18;2.63;;;;;;;22.86;72.88;92905.19;4795946;29;20043;-82
2023/08/10 10:13:12;;;;;;;4.75;2.33;;;;;;;23.15;69.74;92905.75;4795915;29;20054;-82
2023/08/10 10:16:12;;;;;;;5.90;2.50;;;;;;;23.19;68.87;92900.44;4796090;29;20060;-83
2023/08/10 10:18:57;;;;;;;6.13;2.33;;;;;;;23.22;68.48;92908.53;4794525;30;20047;-83
2023/08/10 10:21:23;;;;;;;6.32;2.30;;;;;;;23.56;66.00;92905.28;4794375;30;20046;-82
2023/08/10 10:23:50;;;;;;;5.38;2.60;;;;;;;23.55;62.93;92901.06;4794555;29;20035;-83
2023/08/10 10:26:31;;;;;;;6.88;2.65;;;;;;;23.59;65.92;92899.22;4793741;30;20049;-83
2023/08/10 10:29:51;;;;;;;4.95;2.50;;;;;;;23.56;64.97;92899.94;4793832;29;20045;-83
2023/08/10 10:32:20;;;;;;;5.38;2.40;;;;;;;23.45;61.20;92897.84;4774260;30;20047;-83
2023/08/10 10:35:08;;;;;;;4.90;2.40;;;;;;;23.57;61.92;92898.81;4775537;30;20055;-83
2023/08/10 10:37:34;;;;;;;5.18;2.17;;;;;;;23.65;63.10;92901.22;4776390;30;20508;-82
2023/08/10 10:40:18;;;;;;;4.50;2.08;;;;;;;23.43;63.48;92894.78;4775930;30;20040;-83
2023/08/10 10:43:03;;;;;;;4.30;2.50;;;;;;;23.79;64.32;92895.38;4776337;30;20107;-84
2023/08/10 10:45:36;;;;;;;7.18;2.40;;;;;;;23.93;67.10;92891.38;4775748;30;20491;-84
2023/08/10 10:48:01;;;;;;;9.23;2.40;;;;;;;23.97;67.32;92894.88;4776783;30;20555;-84
2023/08/10 10:50:33;;;;;;;6.60;2.25;;;;;;;23.73;70.32;92888.75;4776382;30;20036;-84
2023/08/10 10:53:06;;;;;;;;;;;;;;;23.71;70.94;92896.38;4791613;30;20039;-83
2023/08/10 10:55:34;;;;;;;6.05;2.65;;;;;;;23.66;72.03;92891.31;4793751;29;19921;-83
2023/08/10 10:58:08;;;;;;;8.20;2.50;;;;;;;23.86;70.93;92890.13;4791900;29;20088;-83
2023/08/10 11:00:36;;;;;;;4.13;2.10;;;;;;;23.86;70.55;92890.13;4792844;29;20051;-83
2023/08/10 11:03:19;;;;;;;7.20;2.40;;;;;;;24.01;73.50;92882.31;4792883;29;20122;-84
2023/08/10 11:05:46;;;;;;;10.38;2.25;;;;;;;24.21;72.85;92870.38;4793294;29;20047;-84
2023/08/10 11:08:15;;;;;;;6.35;2.30;;;;;;;24.37;74.08;92880.13;4793870;29;20499;-84
2023/08/10 11:14:14;;;;;;;4.57;2.60;;;;;;;24.03;70.22;92882.75;4792758;30;20043;-83
2023/08/10 11:16:42;;;;;;;4.63;2.30;;;;;;;24.03;72.57;92880.06;4793329;29;20525;-84
2023/08/10 11:19:10;;;;;;;7.25;2.15;;;;;;;23.96;72.01;92883.41;4793110;29;20114;-84
2023/08/10 11:22:14;;;;;;;5.53;2.08;;;;;;;23.95;71.05;92879.19;4794005;29;20483;-84
2023/08/10 11:24:45;;;;;;;4.20;2.30;;;;;;;24.23;68.62;92880.72;4793211;29;20136;-84
2023/08/10 11:27:23;;;;;;;4.93;2.30;;;;;;;23.98;70.63;92889.16;4792685;29;20130;-84
2023/08/10 11:29:49;;;;;;;4.45;2.40;;;;;;;24.07;70.85;92876.31;4792664;29;20036;-84
2023/08/10 11:32:15;;;;;;;4.75;2.17;;;;;;;24.24;69.75;92883.03;4792478;30;20486;-83
2023/08/10 11:34:41;;;;;;;4.18;2.17;;;;;;;24.39;72.86;92875.19;4791521;29;20122;-84
2023/08/10 11:37:07;;;;;;;5.75;2.38;;;;;;;24.93;68.08;92871.25;4791647;29;20027;-84
2023/08/10 11:39:43;;;;;;;5.10;2.38;;;;;;;25.08;67.69;92874.84;4792789;29;20050;-84
2023/08/10 11:42:13;;;;;;;6.75;2.50;;;;;;;25.33;68.23;92869.75;4793747;29;20526;-84
2023/08/10 11:44:47;;;;;;;7.38;2.65;;;;;;;25.58;68.12;92880.69;4794012;29;20051;-84
2023/08/10 11:47:23;;;;;;;6.70;2.20;;;;;;;25.89;67.01;92874.03;4793297;29;20387;-84
2023/08/10 11:49:49;;;;;;;6.38;2.38;;;;;;;25.60;63.06;92873.06;4793892;29;20051;-84